St. George, Utah Weather observations

Data are for observation ending at time listed.
 Day   Time    Ave.   Ave.  Ave.  Vector   Max.   Stn.    Total    Solar   Ave.  
  of    of     Air    Rel.  Wind   Wind    Wind   Baro.  Precip.   Rad.    Soil  
Year   Day     Temp.  Hum.  Speed  Dir.    Gust   Pres.                    Temp. 
2016   (MST)    F      %     mph   deg.    mph     mb.     in.     W/m2     F   
------------------------------------------------------------------------------
 271    0:00   67.7    40    1.5   340      2.4   922.4    0.00       0    76.3
 271    0:10   67.3    41    0.7     3      2.3   922.4    0.00       0    76.2
 271    0:20   66.7    44    0.1    21      1.1   922.5    0.00       0    76.2
 271    0:30   66.8    41    1.0   356      1.9   922.5    0.00       0    76.1
 271    0:40   67.3    39    1.1   346      2.4   922.4    0.00       0    76.0
 271    0:50   67.7    37    1.3   339      2.8   922.4    0.00       0    75.9
 271    1:00   66.7    40    0.6   339      2.3   922.5    0.00       0    75.8
 271    1:10   66.9    39    2.4   350      3.4   922.5    0.00       0    75.7
 271    1:20   67.8    37    2.3   355      3.6   922.4    0.00       0    75.6
 271    1:30   68.9    34    1.8     4      3.5   922.4    0.00       0    75.5
 271    1:40   68.5    35    0.8    66      2.4   922.5    0.00       0    75.4
 271    1:50   66.5    41    1.3   197      3.9   922.6    0.00       0    75.3
 271    2:00   64.9    44    0.5     2      1.6   922.6    0.00       0    75.3
 271    2:10   64.7    44    0.3     2      1.3   922.6    0.00       0    75.2
 271    2:20   64.0    46    0.3   186      2.7   922.6    0.00       0    75.1
 271    2:30   63.8    46    0.9     5      1.7   922.5    0.00       0    75.0
 271    2:40   63.8    46    1.1   325      2.1   922.4    0.00       0    74.9
 271    2:50   63.1    49    1.1   190      2.8   922.4    0.00       0    74.9
 271    3:00   62.9    49    0.6   164      2.2   922.4    0.00       0    74.8
 271    3:10   62.7    50    0.6   218      1.3   922.3    0.00       0    74.7
 271    3:20   61.8    52    0.2   276      1.2   922.3    0.00       0    74.6
 271    3:30   61.0    54    0.4   190      1.8   922.3    0.00       0    74.5
 271    3:40   60.7    54    0.2   215      1.3   922.5    0.00       0    74.4
 271    3:50   60.2    55    1.2   332      3.4   922.5    0.00       0    74.4
 271    4:00   60.4    54    1.4   341      3.7   922.5    0.00       0    74.3
 271    4:10   60.9    53    1.1   330      3.5   922.5    0.00       0    74.2
 271    4:20   59.9    54    0.0     0      0.0   922.5    0.00       0    74.1
 271    4:30   59.4    57    0.6   324      1.5   922.6    0.00       0    74.0
 271    4:40   60.3    54    0.8   353      1.9   922.6    0.00       0    74.0
 271    4:50   60.3    55    0.3   204      1.6   922.7    0.00       0    73.8
 271    5:00   59.5    57    0.4    53      1.3   922.8    0.00       0    73.8
 271    5:10   59.5    57    0.9   351      2.3   922.7    0.00       0    73.7
 271    5:20   59.5    56    1.1   333      2.4   922.6    0.00       0    73.6
 271    5:30   59.7    55    0.4    11      1.8   922.7    0.00       0    73.5
 271    5:40   59.8    57    1.1   194      2.3   922.8    0.00       0    73.5
 271    5:50   58.9    59    0.6   316      1.8   922.9    0.00       0    73.4
 271    6:00   58.4    61    0.7   303      2.0   922.9    0.00       0    73.3
 271    6:10   58.4    60    0.0   338      0.6   922.9    0.00       0    73.2
 271    6:20   57.9    59    0.1   337      0.7   922.9    0.00       2    73.1
 271    6:30   58.0    66    0.1    46      0.9   923.0    0.00       3    73.1
 271    6:40   58.7    69    0.2    30      0.8   922.9    0.00       6    72.9
 271    6:50   58.1    64    0.9   210      2.2   923.1    0.00      10    72.8
 271    7:00   57.7    64    0.5   201      2.1   923.1    0.00      15    72.8
 271    7:10   57.7    61    0.2     8      1.1   923.3    0.00      17    72.7
 271    7:20   58.5    59    0.8   358      1.8   923.3    0.00      22    72.6
 271    7:30   60.2    56    1.3   326      2.2   923.3    0.00      22    72.5
 271    7:40   61.6    52    0.6   217      2.0   923.4    0.00      26    72.4
 271    7:50   62.3    50    1.0   180      2.3   923.4    0.00      78    72.3
 271    8:00   62.8    50    1.5   134      2.7   923.4    0.00     231    72.2
 271    8:10   63.2    51    1.9   163      3.5   923.5    0.00     265    72.1
 271    8:20   63.8    50    1.7   172      3.2   923.5    0.00     300    72.0
 271    8:30   66.0    44    1.3   136      3.0   923.5    0.00     332    72.0
 271    8:40   68.1    39    1.1   157      2.8   923.6    0.00     365    71.9
 271    8:50   69.0    36    1.0   186      2.5   923.6    0.00     396    71.9
 271    9:00   69.3    35    1.6   189      3.1   923.6    0.00     427    71.9
 271    9:10   70.2    35    1.1   164      3.1   923.6    0.00     459    71.8
 271    9:20   71.0    34    2.0   182      5.2   923.6    0.00     487    71.8
 271    9:30   70.2    34    2.3   184      4.5   923.6    0.00     516    71.8
 271    9:40   70.7    34    2.1   189      4.6   923.5    0.00     543    71.8
 271    9:50   72.7    32    1.1   232      2.6   923.4    0.00     569    71.8
 271   10:00   74.0    30    1.0   169      3.7   923.3    0.00     594    71.8
 271   10:10   75.2    29    1.3   133      2.9   923.2    0.00     618    71.8
 271   10:20   75.1    28    1.7   167      3.7   923.1    0.00     642    71.8
 271   10:30   75.3    28    2.8   196      6.1   923.0    0.00     664    71.9
 271   10:40   76.0    27    2.8   190      6.1   922.8    0.00     685    71.9
 271   10:50   76.7    27    2.0   166      4.1   922.7    0.00     704    72.0
 271   11:00   77.9    26    1.3    61      3.3   922.5    0.00     721    72.1
 271   11:10   78.5    24    1.9   183      4.6   922.4    0.00     736    72.2
 271   11:20   78.2    22    2.5   184      5.3   922.3    0.00     754    72.4
 271   11:30   79.9    22    1.2   191      4.2   922.1    0.00     765    72.5
 271   11:40   81.3    21    1.3   248      3.5   921.8    0.00     775    72.7
 271   11:50   81.7    21    0.9   158      2.4   921.7    0.00     783    72.8
 271   12:00   81.5    19    2.5   213      5.8   921.4    0.00     792    73.0
 271   12:10   82.6    19    1.8   234      4.4   921.2    0.00     799    73.2
 271   12:20   82.8    18    1.8   206      4.4   921.0    0.00     804    73.3
 271   12:30   84.1    19    0.8   111      2.9   920.8    0.00     805    73.5
 271   12:40   86.0    18    0.9   184      2.7   920.5    0.00     805    73.7
 271   12:50   85.3    18    1.6   159      4.4   920.4    0.00     804    73.9
 271   13:00   85.7    17    1.3   190      3.5   920.2    0.00     800    74.1
 271   13:10   86.8    16    1.7    96      5.3   920.0    0.00     797    74.3
 271   13:20   86.3    16    1.7    21      4.3   919.8    0.00     790    74.6
 271   13:30   87.1    16    0.8    74      3.4   919.6    0.00     781    74.8
 271   13:40   87.9    16    2.5   199      5.6   919.5    0.00     771    75.0
 271   13:50   88.1    16    0.7    19      2.9   919.3    0.00     762    75.3
 271   14:00   88.7    14    0.7   166      4.3   919.1    0.00     751    75.5
 271   14:10   89.0    14    1.2   305      4.4   919.0    0.00     736    75.7
 271   14:20   89.0    14    1.7   222      4.5   918.9    0.00     722    76.0
 271   14:30   89.8    14    0.5   108      3.3   918.8    0.00     703    76.2
 271   14:40   89.2    14    1.5    68      7.3   918.7    0.00     684    76.4
 271   14:50   89.5    14    2.0   140      5.7   918.6    0.00     663    76.6
 271   15:00   89.5    14    1.2   141      3.7   918.5    0.00     640    76.8
 271   15:10   90.1    13    0.9   322      2.9   918.4    0.00     616    77.1
 271   15:20   90.4    13    1.7   339      7.5   918.3    0.00     590    77.3
 271   15:30   89.4    14    2.0    12      3.7   918.2    0.00     568    77.5
 271   15:40   89.4    14    1.6   127      5.8   918.5    0.00     535    77.7
 271   15:50   89.5    14    1.7    92      5.2   918.7    0.00     508    77.9
 271   16:00   89.7    14    2.3    70      5.9   918.6    0.00     478    78.1
 271   16:10   90.1    14    2.5   179      6.8   918.6    0.00     448    78.3
 271   16:20   90.6    14    2.5   186      8.8   918.6    0.00     419    78.5
 271   16:30   90.8    14    2.1   162      4.3   918.5    0.00     388    78.6
 271   16:40   90.5    13    2.9   192      7.3   918.4    0.00     356    78.7
 271   16:50   90.8    14    2.8   184      6.5   918.4    0.00     324    78.9
 271   17:00   90.5    14    2.2   185      4.6   918.4    0.00     291    79.0
 271   17:10   90.1    14    1.9   101      7.0   918.5    0.00     260    79.1
 271   17:20   89.2    15    4.5   140     12.5   918.6    0.00     211    79.2
 271   17:30   87.2    16    5.5   132     13.5   918.8    0.00     158    79.3
 271   17:40   85.6    18    4.1   145     10.7   918.9    0.00      38    79.4
 271   17:50   84.6    20    3.7   145     10.7   919.0    0.00      29    79.4
 271   18:00   84.0    21    3.2   132     10.6   919.0    0.00      24    79.5
 271   18:10   83.5    22    2.8   126      9.3   919.1    0.00      20    79.5
 271   18:20   83.0    22    1.9   103      5.8   919.1    0.00      14    79.5
 271   18:30   82.8    23    2.2    72      5.9   919.2    0.00       7    79.5
 271   18:40   81.8    25    2.2    46      4.7   919.3    0.00       3    79.4
 271   18:50   81.5    24    2.0    33      5.8   919.3    0.00       0    79.4
 271   19:00   81.6    24    3.3    64      7.2   919.2    0.00       0    79.3
 271   19:10   81.3    25    2.2    77      6.9   919.3    0.00       0    79.3
 271   19:20   80.7    26    1.5    92      3.7   919.4    0.00       0    79.2
 271   19:30   80.4    26    2.0   115      6.1   919.4    0.00       0    79.1
 271   19:40   80.5    25    2.6    91      8.0   919.6    0.00       0    79.1
 271   19:50   80.4    25    1.7    94      6.6   919.6    0.00       0    79.0
 271   20:00   80.3    25    3.1    74      6.6   919.7    0.00       0    78.9
 271   20:10   79.5    26    2.3    65      4.9   919.7    0.00       0    78.8
 271   20:20   79.0    27    1.3    70      3.6   919.7    0.00       0    78.7
 271   20:30   78.8    27    1.9    77      5.0   919.8    0.00       0    78.7
 271   20:40   78.9    27    1.5   194      3.6   920.1    0.00       0    78.5
 271   20:50   77.4    29    0.5   216      2.1   920.2    0.00       0    78.4
 271   21:00   76.0    31    0.2   151      1.8   920.2    0.00       0    78.3
 271   21:10   75.1    33    0.4   358      1.2   920.3    0.00       0    78.3
 271   21:20   74.9    34    1.4   346      2.6   920.3    0.00       0    78.2
 271   21:30   74.4    35    1.2     4      2.6   920.4    0.00       0    78.1
 271   21:40   74.8    32    1.3    31      3.1   920.4    0.00       0    78.0
 271   21:50   74.9    33    0.1    55      1.1   920.5    0.00       0    77.9
 271   22:00   73.2    36    0.7   324      2.3   920.6    0.00       0    77.8
 271   22:10   72.5    37    1.3   342      2.6   920.5    0.00       0    77.7
 271   22:20   72.1    39    0.3    36      1.2   920.6    0.00       0    77.6
 271   22:30   71.5    40    0.3   183      1.2   920.7    0.00       0    77.5
 271   22:40   70.8    41    0.3   343      1.4   920.8    0.00       0    77.4
 271   22:50   70.6    43    0.2   248      1.4   920.8    0.00       0    77.3
 271   23:00   70.9    41    1.2    11      2.1   920.9    0.00       0    77.2
 271   23:10   71.8    37    1.2    36      3.4   920.9    0.00       0    77.1
 271   23:20   73.3    33    1.8    34      4.7   920.9    0.00       0    77.0
 271   23:30   73.2    33    0.9    32      3.9   921.0    0.00       0    76.9
 271   23:40   72.3    35    0.5   240      2.3   921.0    0.00       0    76.8
 271   23:50   70.9    39    0.8   222      2.7   921.0    0.00       0    76.7

Return to St. George, Utah graphs page.


Western Regional Climate Center,wrcc@dri.edu